sensor_id;sensor_type;location;lat;lon;timestamp;P1;durP1;ratioP1;P2;durP2;ratioP2
67776;SDS011;54576;52.020;5.536;2024-03-23T00:55:15;36.60;;;13.25;;
67776;SDS011;54576;52.020;5.536;2024-03-23T00:57:41;42.90;;;12.38;;
67776;SDS011;54576;52.020;5.536;2024-03-23T01:00:06;45.70;;;12.40;;
67776;SDS011;54576;52.020;5.536;2024-03-23T01:02:35;45.47;;;12.73;;
67776;SDS011;54576;52.020;5.536;2024-03-23T01:05:00;42.13;;;13.25;;
67776;SDS011;54576;52.020;5.536;2024-03-23T01:07:32;43.83;;;12.45;;
67776;SDS011;54576;52.020;5.536;2024-03-23T01:09:57;42.35;;;11.50;;
67776;SDS011;54576;52.020;5.536;2024-03-23T01:12:24;48.47;;;13.65;;
67776;SDS011;54576;52.020;5.536;2024-03-23T01:14:49;44.88;;;11.65;;
67776;SDS011;54576;52.020;5.536;2024-03-23T01:17:15;42.28;;;12.90;;
67776;SDS011;54576;52.020;5.536;2024-03-23T01:19:40;45.83;;;11.57;;
67776;SDS011;54576;52.020;5.536;2024-03-23T01:22:06;40.67;;;12.13;;
67776;SDS011;54576;52.020;5.536;2024-03-23T01:24:32;37.78;;;12.38;;
67776;SDS011;54576;52.020;5.536;2024-03-23T01:26:58;40.83;;;11.65;;
67776;SDS011;54576;52.020;5.536;2024-03-23T01:29:23;33.63;;;10.77;;
67776;SDS011;54576;52.020;5.536;2024-03-23T01:31:49;42.40;;;11.60;;
67776;SDS011;54576;52.020;5.536;2024-03-23T01:34:14;44.00;;;11.27;;
67776;SDS011;54576;52.020;5.536;2024-03-23T01:36:40;34.28;;;10.32;;
67776;SDS011;54576;52.020;5.536;2024-03-23T01:39:05;49.75;;;11.68;;
67776;SDS011;54576;52.020;5.536;2024-03-23T01:41:34;45.60;;;12.43;;
67776;SDS011;54576;52.020;5.536;2024-03-23T01:44:01;44.97;;;12.02;;
67776;SDS011;54576;52.020;5.536;2024-03-23T01:46:30;44.05;;;11.57;;
67776;SDS011;54576;52.020;5.536;2024-03-23T01:48:56;44.42;;;11.80;;
67776;SDS011;54576;52.020;5.536;2024-03-23T01:51:22;44.00;;;11.43;;
67776;SDS011;54576;52.020;5.536;2024-03-23T01:53:48;39.78;;;11.38;;
67776;SDS011;54576;52.020;5.536;2024-03-23T01:56:14;29.83;;;11.07;;
67776;SDS011;54576;52.020;5.536;2024-03-23T01:58:40;44.25;;;12.05;;
67776;SDS011;54576;52.020;5.536;2024-03-23T02:01:05;39.97;;;11.85;;
67776;SDS011;54576;52.020;5.536;2024-03-23T02:03:31;37.28;;;10.82;;
67776;SDS011;54576;52.020;5.536;2024-03-23T02:05:57;46.15;;;12.10;;
67776;SDS011;54576;52.020;5.536;2024-03-23T02:08:23;46.10;;;12.38;;
67776;SDS011;54576;52.020;5.536;2024-03-23T02:10:49;41.25;;;11.80;;
67776;SDS011;54576;52.020;5.536;2024-03-23T02:13:15;49.00;;;13.15;;
67776;SDS011;54576;52.020;5.536;2024-03-23T02:15:42;38.75;;;11.18;;
67776;SDS011;54576;52.020;5.536;2024-03-23T02:18:08;44.13;;;12.55;;
67776;SDS011;54576;52.020;5.536;2024-03-23T02:20:34;38.53;;;10.60;;
67776;SDS011;54576;52.020;5.536;2024-03-23T02:23:00;42.05;;;10.13;;
67776;SDS011;54576;52.020;5.536;2024-03-23T02:25:26;31.55;;;10.05;;
67776;SDS011;54576;52.020;5.536;2024-03-23T02:27:51;43.40;;;11.90;;
67776;SDS011;54576;52.020;5.536;2024-03-23T02:30:19;43.28;;;11.70;;
67776;SDS011;54576;52.020;5.536;2024-03-23T02:32:45;50.63;;;12.15;;
67776;SDS011;54576;52.020;5.536;2024-03-23T02:35:11;50.60;;;11.88;;
67776;SDS011;54576;52.020;5.536;2024-03-23T02:37:39;45.30;;;12.68;;
67776;SDS011;54576;52.020;5.536;2024-03-23T02:40:08;37.53;;;11.93;;
67776;SDS011;54576;52.020;5.536;2024-03-23T02:42:33;47.75;;;12.05;;
67776;SDS011;54576;52.020;5.536;2024-03-23T02:44:59;45.10;;;11.93;;
67776;SDS011;54576;52.020;5.536;2024-03-23T02:47:25;38.28;;;10.45;;
67776;SDS011;54576;52.020;5.536;2024-03-23T02:49:50;40.95;;;11.05;;
67776;SDS011;54576;52.020;5.536;2024-03-23T02:52:16;39.53;;;11.77;;
67776;SDS011;54576;52.020;5.536;2024-03-23T02:54:41;38.03;;;10.35;;
67776;SDS011;54576;52.020;5.536;2024-03-23T02:57:10;45.38;;;10.90;;
67776;SDS011;54576;52.020;5.536;2024-03-23T02:59:36;35.47;;;11.63;;
67776;SDS011;54576;52.020;5.536;2024-03-23T03:02:01;36.95;;;11.10;;
67776;SDS011;54576;52.020;5.536;2024-03-23T03:04:29;53.03;;;11.52;;
67776;SDS011;54576;52.020;5.536;2024-03-23T03:06:55;34.33;;;11.27;;
67776;SDS011;54576;52.020;5.536;2024-03-23T03:09:21;34.95;;;10.77;;
67776;SDS011;54576;52.020;5.536;2024-03-23T03:11:46;30.67;;;9.85;;
67776;SDS011;54576;52.020;5.536;2024-03-23T03:14:12;39.83;;;10.88;;
67776;SDS011;54576;52.020;5.536;2024-03-23T03:16:41;44.72;;;10.57;;
67776;SDS011;54576;52.020;5.536;2024-03-23T03:19:06;38.25;;;9.70;;
67776;SDS011;54576;52.020;5.536;2024-03-23T03:21:32;32.53;;;9.75;;
67776;SDS011;54576;52.020;5.536;2024-03-23T03:23:57;33.75;;;9.52;;
67776;SDS011;54576;52.020;5.536;2024-03-23T03:26:23;27.17;;;8.88;;
67776;SDS011;54576;52.020;5.536;2024-03-23T03:28:49;40.85;;;10.85;;
67776;SDS011;54576;52.020;5.536;2024-03-23T03:31:15;34.47;;;8.88;;
67776;SDS011;54576;52.020;5.536;2024-03-23T03:33:41;31.08;;;7.88;;
67776;SDS011;54576;52.020;5.536;2024-03-23T03:36:08;26.92;;;7.93;;
67776;SDS011;54576;52.020;5.536;2024-03-23T03:38:33;33.08;;;8.63;;
67776;SDS011;54576;52.020;5.536;2024-03-23T03:41:00;22.02;;;7.40;;
67776;SDS011;54576;52.020;5.536;2024-03-23T03:43:29;33.65;;;8.68;;
67776;SDS011;54576;52.020;5.536;2024-03-23T03:45:55;41.28;;;8.63;;
67776;SDS011;54576;52.020;5.536;2024-03-23T03:48:21;25.95;;;8.15;;
67776;SDS011;54576;52.020;5.536;2024-03-23T03:50:47;26.45;;;6.88;;
67776;SDS011;54576;52.020;5.536;2024-03-23T03:53:13;25.15;;;7.13;;
67776;SDS011;54576;52.020;5.536;2024-03-23T03:55:42;29.27;;;6.43;;
67776;SDS011;54576;52.020;5.536;2024-03-23T03:58:08;33.92;;;7.53;;
67776;SDS011;54576;52.020;5.536;2024-03-23T04:00:33;23.33;;;6.53;;
67776;SDS011;54576;52.020;5.536;2024-03-23T04:02:59;33.72;;;7.53;;
67776;SDS011;54576;52.020;5.536;2024-03-23T04:05:24;35.78;;;6.63;;
67776;SDS011;54576;52.020;5.536;2024-03-23T04:07:50;32.03;;;6.38;;
67776;SDS011;54576;52.020;5.536;2024-03-23T04:10:16;20.90;;;6.00;;
67776;SDS011;54576;52.020;5.536;2024-03-23T04:12:42;25.45;;;6.10;;
67776;SDS011;54576;52.020;5.536;2024-03-23T04:15:08;27.33;;;6.22;;
67776;SDS011;54576;52.020;5.536;2024-03-23T04:17:34;20.70;;;5.35;;
67776;SDS011;54576;52.020;5.536;2024-03-23T04:20:00;27.38;;;5.00;;
67776;SDS011;54576;52.020;5.536;2024-03-23T04:22:26;26.40;;;5.57;;
67776;SDS011;54576;52.020;5.536;2024-03-23T04:24:53;16.98;;;5.18;;
67776;SDS011;54576;52.020;5.536;2024-03-23T04:27:19;17.02;;;5.15;;
67776;SDS011;54576;52.020;5.536;2024-03-23T04:29:48;18.70;;;5.22;;
67776;SDS011;54576;52.020;5.536;2024-03-23T04:32:17;18.02;;;5.03;;
67776;SDS011;54576;52.020;5.536;2024-03-23T04:34:45;17.77;;;4.38;;
67776;SDS011;54576;52.020;5.536;2024-03-23T04:37:11;16.95;;;4.35;;
67776;SDS011;54576;52.020;5.536;2024-03-23T04:39:36;25.20;;;5.22;;
67776;SDS011;54576;52.020;5.536;2024-03-23T04:42:02;16.23;;;4.28;;
67776;SDS011;54576;52.020;5.536;2024-03-23T04:44:28;15.15;;;3.30;;
67776;SDS011;54576;52.020;5.536;2024-03-23T04:46:54;26.42;;;4.97;;
67776;SDS011;54576;52.020;5.536;2024-03-23T04:49:20;22.13;;;4.13;;
67776;SDS011;54576;52.020;5.536;2024-03-23T04:51:45;21.25;;;3.65;;
67776;SDS011;54576;52.020;5.536;2024-03-23T04:54:14;14.25;;;3.63;;
67776;SDS011;54576;52.020;5.536;2024-03-23T04:56:40;20.10;;;5.40;;
67776;SDS011;54576;52.020;5.536;2024-03-23T04:59:06;21.77;;;3.63;;
67776;SDS011;54576;52.020;5.536;2024-03-23T05:01:32;19.10;;;3.70;;
67776;SDS011;54576;52.020;5.536;2024-03-23T05:03:57;22.00;;;4.85;;
67776;SDS011;54576;52.020;5.536;2024-03-23T05:06:26;19.85;;;4.18;;
67776;SDS011;54576;52.020;5.536;2024-03-23T05:08:52;26.45;;;4.50;;
67776;SDS011;54576;52.020;5.536;2024-03-23T05:11:17;16.75;;;4.43;;
67776;SDS011;54576;52.020;5.536;2024-03-23T05:13:46;20.17;;;4.25;;
67776;SDS011;54576;52.020;5.536;2024-03-23T05:16:11;19.10;;;3.97;;
67776;SDS011;54576;52.020;5.536;2024-03-23T05:18:37;16.38;;;4.18;;
67776;SDS011;54576;52.020;5.536;2024-03-23T05:21:03;21.05;;;4.82;;
67776;SDS011;54576;52.020;5.536;2024-03-23T05:23:29;21.10;;;3.85;;
67776;SDS011;54576;52.020;5.536;2024-03-23T05:25:54;21.80;;;3.95;;
67776;SDS011;54576;52.020;5.536;2024-03-23T05:28:21;12.25;;;3.80;;
67776;SDS011;54576;52.020;5.536;2024-03-23T05:30:50;19.58;;;3.47;;
67776;SDS011;54576;52.020;5.536;2024-03-23T05:33:18;23.52;;;3.38;;
67776;SDS011;54576;52.020;5.536;2024-03-23T05:35:45;19.57;;;3.20;;
67776;SDS011;54576;52.020;5.536;2024-03-23T05:38:11;16.98;;;3.40;;
67776;SDS011;54576;52.020;5.536;2024-03-23T05:40:37;11.75;;;3.10;;
67776;SDS011;54576;52.020;5.536;2024-03-23T05:43:05;16.20;;;3.38;;
67776;SDS011;54576;52.020;5.536;2024-03-23T05:45:31;21.90;;;3.17;;
67776;SDS011;54576;52.020;5.536;2024-03-23T05:47:57;23.45;;;3.75;;
67776;SDS011;54576;52.020;5.536;2024-03-23T05:50:23;13.25;;;3.35;;
67776;SDS011;54576;52.020;5.536;2024-03-23T05:52:49;12.50;;;4.15;;
67776;SDS011;54576;52.020;5.536;2024-03-23T05:55:15;17.83;;;2.90;;
67776;SDS011;54576;52.020;5.536;2024-03-23T05:57:40;22.75;;;2.92;;
67776;SDS011;54576;52.020;5.536;2024-03-23T06:00:06;14.02;;;2.88;;
67776;SDS011;54576;52.020;5.536;2024-03-23T06:02:41;13.10;;;2.63;;
67776;SDS011;54576;52.020;5.536;2024-03-23T06:05:09;14.23;;;2.47;;
67776;SDS011;54576;52.020;5.536;2024-03-23T06:07:36;22.30;;;2.88;;
67776;SDS011;54576;52.020;5.536;2024-03-23T06:10:01;11.23;;;2.38;;
67776;SDS011;54576;52.020;5.536;2024-03-23T06:12:27;17.73;;;2.05;;
67776;SDS011;54576;52.020;5.536;2024-03-23T06:14:52;20.35;;;2.83;;
67776;SDS011;54576;52.020;5.536;2024-03-23T06:17:18;18.80;;;2.10;;
67776;SDS011;54576;52.020;5.536;2024-03-23T06:19:43;12.30;;;2.05;;
67776;SDS011;54576;52.020;5.536;2024-03-23T06:22:09;13.32;;;2.30;;
67776;SDS011;54576;52.020;5.536;2024-03-23T06:24:35;15.30;;;2.50;;
67776;SDS011;54576;52.020;5.536;2024-03-23T06:27:01;24.02;;;2.72;;
67776;SDS011;54576;52.020;5.536;2024-03-23T06:29:26;16.70;;;2.00;;
67776;SDS011;54576;52.020;5.536;2024-03-23T06:31:53;15.60;;;2.58;;
67776;SDS011;54576;52.020;5.536;2024-03-23T06:34:19;14.05;;;2.83;;
67776;SDS011;54576;52.020;5.536;2024-03-23T06:36:46;18.63;;;2.60;;
67776;SDS011;54576;52.020;5.536;2024-03-23T06:39:12;14.02;;;2.08;;
67776;SDS011;54576;52.020;5.536;2024-03-23T06:41:40;25.20;;;2.78;;
67776;SDS011;54576;52.020;5.536;2024-03-23T06:44:23;20.15;;;2.78;;
67776;SDS011;54576;52.020;5.536;2024-03-23T06:46:49;22.40;;;3.38;;
67776;SDS011;54576;52.020;5.536;2024-03-23T06:49:15;14.98;;;2.10;;
67776;SDS011;54576;52.020;5.536;2024-03-23T06:51:40;14.75;;;2.22;;
67776;SDS011;54576;52.020;5.536;2024-03-23T06:54:09;12.80;;;2.10;;
67776;SDS011;54576;52.020;5.536;2024-03-23T06:56:35;16.17;;;2.75;;
67776;SDS011;54576;52.020;5.536;2024-03-23T06:59:01;12.93;;;3.00;;
67776;SDS011;54576;52.020;5.536;2024-03-23T07:01:26;21.55;;;3.70;;
67776;SDS011;54576;52.020;5.536;2024-03-23T07:03:53;15.65;;;2.53;;
67776;SDS011;54576;52.020;5.536;2024-03-23T07:06:19;12.32;;;2.15;;
67776;SDS011;54576;52.020;5.536;2024-03-23T07:08:45;13.93;;;2.33;;
67776;SDS011;54576;52.020;5.536;2024-03-23T07:11:10;11.80;;;2.58;;
67776;SDS011;54576;52.020;5.536;2024-03-23T07:13:36;22.30;;;2.97;;
67776;SDS011;54576;52.020;5.536;2024-03-23T07:16:01;14.20;;;2.50;;
67776;SDS011;54576;52.020;5.536;2024-03-23T07:18:27;19.85;;;2.95;;
67776;SDS011;54576;52.020;5.536;2024-03-23T07:20:54;12.45;;;2.83;;
67776;SDS011;54576;52.020;5.536;2024-03-23T07:23:21;21.23;;;2.70;;
67776;SDS011;54576;52.020;5.536;2024-03-23T07:25:55;15.55;;;2.58;;
67776;SDS011;54576;52.020;5.536;2024-03-23T07:28:26;16.48;;;3.08;;
67776;SDS011;54576;52.020;5.536;2024-03-23T07:33:34;16.67;;;2.75;;
67776;SDS011;54576;52.020;5.536;2024-03-23T07:36:01;20.10;;;3.08;;
67776;SDS011;54576;52.020;5.536;2024-03-23T07:41:02;11.90;;;2.67;;
67776;SDS011;54576;52.020;5.536;2024-03-23T07:43:39;15.50;;;3.00;;
67776;SDS011;54576;52.020;5.536;2024-03-23T07:46:05;15.63;;;3.47;;
67776;SDS011;54576;52.020;5.536;2024-03-23T07:48:31;16.92;;;2.60;;
67776;SDS011;54576;52.020;5.536;2024-03-23T07:51:07;16.55;;;2.60;;
67776;SDS011;54576;52.020;5.536;2024-03-23T07:53:43;18.35;;;3.03;;
67776;SDS011;54576;52.020;5.536;2024-03-23T07:56:11;16.90;;;3.10;;
67776;SDS011;54576;52.020;5.536;2024-03-23T07:58:37;19.52;;;2.75;;
67776;SDS011;54576;52.020;5.536;2024-03-23T08:01:04;13.05;;;2.92;;
67776;SDS011;54576;52.020;5.536;2024-03-23T08:03:36;18.10;;;2.72;;
67776;SDS011;54576;52.020;5.536;2024-03-23T08:08:41;17.30;;;2.53;;
67776;SDS011;54576;52.020;5.536;2024-03-23T08:11:08;16.50;;;2.70;;
67776;SDS011;54576;52.020;5.536;2024-03-23T08:13:34;17.15;;;2.80;;
67776;SDS011;54576;52.020;5.536;2024-03-23T08:16:01;14.90;;;2.17;;
67776;SDS011;54576;52.020;5.536;2024-03-23T08:18:28;14.77;;;2.17;;
67776;SDS011;54576;52.020;5.536;2024-03-23T08:20:57;13.52;;;2.08;;
67776;SDS011;54576;52.020;5.536;2024-03-23T08:23:24;22.98;;;3.30;;
67776;SDS011;54576;52.020;5.536;2024-03-23T08:25:51;24.05;;;2.65;;
67776;SDS011;54576;52.020;5.536;2024-03-23T08:28:17;18.70;;;2.90;;
67776;SDS011;54576;52.020;5.536;2024-03-23T08:30:43;12.13;;;2.35;;
67776;SDS011;54576;52.020;5.536;2024-03-23T08:33:08;14.25;;;1.98;;
67776;SDS011;54576;52.020;5.536;2024-03-23T08:35:34;12.15;;;1.90;;
67776;SDS011;54576;52.020;5.536;2024-03-23T08:38:00;14.05;;;2.08;;
67776;SDS011;54576;52.020;5.536;2024-03-23T08:40:25;9.60;;;1.65;;
67776;SDS011;54576;52.020;5.536;2024-03-23T08:42:51;17.80;;;2.20;;
67776;SDS011;54576;52.020;5.536;2024-03-23T08:45:16;13.80;;;2.20;;
67776;SDS011;54576;52.020;5.536;2024-03-23T08:47:42;15.40;;;2.63;;
67776;SDS011;54576;52.020;5.536;2024-03-23T08:50:07;12.13;;;2.65;;
67776;SDS011;54576;52.020;5.536;2024-03-23T08:52:33;19.48;;;2.22;;
67776;SDS011;54576;52.020;5.536;2024-03-23T08:54:59;10.00;;;1.90;;
67776;SDS011;54576;52.020;5.536;2024-03-23T08:57:25;16.35;;;2.47;;
67776;SDS011;54576;52.020;5.536;2024-03-23T08:59:50;15.50;;;2.58;;
67776;SDS011;54576;52.020;5.536;2024-03-23T09:02:16;16.63;;;2.30;;
67776;SDS011;54576;52.020;5.536;2024-03-23T09:04:41;8.23;;;1.80;;
67776;SDS011;54576;52.020;5.536;2024-03-23T09:07:07;10.57;;;1.95;;
67776;SDS011;54576;52.020;5.536;2024-03-23T09:09:33;13.45;;;2.05;;
67776;SDS011;54576;52.020;5.536;2024-03-23T09:11:58;11.02;;;1.90;;
67776;SDS011;54576;52.020;5.536;2024-03-23T09:14:24;18.55;;;2.28;;
67776;SDS011;54576;52.020;5.536;2024-03-23T09:16:50;13.68;;;2.15;;
67776;SDS011;54576;52.020;5.536;2024-03-23T09:19:16;12.13;;;1.88;;
67776;SDS011;54576;52.020;5.536;2024-03-23T09:21:42;10.90;;;2.30;;
67776;SDS011;54576;52.020;5.536;2024-03-23T09:24:08;13.65;;;2.17;;
67776;SDS011;54576;52.020;5.536;2024-03-23T09:26:33;25.25;;;2.90;;
67776;SDS011;54576;52.020;5.536;2024-03-23T09:28:59;13.90;;;2.28;;
67776;SDS011;54576;52.020;5.536;2024-03-23T09:31:25;16.85;;;2.30;;
67776;SDS011;54576;52.020;5.536;2024-03-23T09:33:51;14.05;;;2.20;;
67776;SDS011;54576;52.020;5.536;2024-03-23T09:36:16;7.50;;;1.50;;
67776;SDS011;54576;52.020;5.536;2024-03-23T09:38:42;5.25;;;1.38;;
67776;SDS011;54576;52.020;5.536;2024-03-23T09:41:08;9.15;;;1.83;;
67776;SDS011;54576;52.020;5.536;2024-03-23T09:43:34;9.55;;;1.70;;
67776;SDS011;54576;52.020;5.536;2024-03-23T09:46:01;10.20;;;1.80;;
67776;SDS011;54576;52.020;5.536;2024-03-23T09:48:27;6.88;;;1.70;;
67776;SDS011;54576;52.020;5.536;2024-03-23T09:50:53;7.78;;;1.88;;
67776;SDS011;54576;52.020;5.536;2024-03-23T09:53:18;8.40;;;1.58;;
67776;SDS011;54576;52.020;5.536;2024-03-23T09:55:47;12.25;;;2.08;;
67776;SDS011;54576;52.020;5.536;2024-03-23T09:58:14;12.13;;;2.25;;
67776;SDS011;54576;52.020;5.536;2024-03-23T10:00:41;11.82;;;2.58;;
67776;SDS011;54576;52.020;5.536;2024-03-23T10:03:06;8.73;;;2.10;;
67776;SDS011;54576;52.020;5.536;2024-03-23T10:05:33;8.20;;;2.05;;
67776;SDS011;54576;52.020;5.536;2024-03-23T10:08:00;14.25;;;2.13;;
67776;SDS011;54576;52.020;5.536;2024-03-23T10:10:26;13.50;;;1.90;;
67776;SDS011;54576;52.020;5.536;2024-03-23T10:12:52;16.77;;;3.38;;
67776;SDS011;54576;52.020;5.536;2024-03-23T10:15:18;9.90;;;1.80;;
67776;SDS011;54576;52.020;5.536;2024-03-23T10:17:45;17.15;;;2.65;;
67776;SDS011;54576;52.020;5.536;2024-03-23T10:20:12;12.90;;;2.55;;
67776;SDS011;54576;52.020;5.536;2024-03-23T10:22:38;14.05;;;2.17;;
67776;SDS011;54576;52.020;5.536;2024-03-23T10:25:08;11.63;;;2.10;;
67776;SDS011;54576;52.020;5.536;2024-03-23T10:27:34;14.20;;;2.80;;
67776;SDS011;54576;52.020;5.536;2024-03-23T10:30:12;10.95;;;2.10;;
67776;SDS011;54576;52.020;5.536;2024-03-23T10:32:42;15.65;;;2.20;;
67776;SDS011;54576;52.020;5.536;2024-03-23T10:35:14;6.80;;;1.27;;
67776;SDS011;54576;52.020;5.536;2024-03-23T10:37:43;6.50;;;1.73;;
67776;SDS011;54576;52.020;5.536;2024-03-23T10:40:11;12.00;;;1.98;;
67776;SDS011;54576;52.020;5.536;2024-03-23T10:42:37;17.65;;;2.35;;
67776;SDS011;54576;52.020;5.536;2024-03-23T10:45:04;13.98;;;1.70;;
67776;SDS011;54576;52.020;5.536;2024-03-23T10:47:30;11.88;;;1.88;;
67776;SDS011;54576;52.020;5.536;2024-03-23T10:49:57;13.68;;;1.80;;
67776;SDS011;54576;52.020;5.536;2024-03-23T10:52:22;9.38;;;1.50;;
67776;SDS011;54576;52.020;5.536;2024-03-23T10:54:48;11.32;;;1.70;;
67776;SDS011;54576;52.020;5.536;2024-03-23T10:57:20;9.38;;;2.40;;
67776;SDS011;54576;52.020;5.536;2024-03-23T10:59:48;10.68;;;1.80;;
67776;SDS011;54576;52.020;5.536;2024-03-23T11:02:20;9.90;;;1.88;;
67776;SDS011;54576;52.020;5.536;2024-03-23T11:04:46;8.50;;;1.67;;
67776;SDS011;54576;52.020;5.536;2024-03-23T11:07:31;8.68;;;1.52;;
67776;SDS011;54576;52.020;5.536;2024-03-23T11:10:01;4.57;;;1.33;;
67776;SDS011;54576;52.020;5.536;2024-03-23T11:12:28;8.48;;;1.95;;
67776;SDS011;54576;52.020;5.536;2024-03-23T11:17:28;13.55;;;1.85;;
67776;SDS011;54576;52.020;5.536;2024-03-23T11:19:55;10.18;;;1.65;;
67776;SDS011;54576;52.020;5.536;2024-03-23T11:25:03;3.65;;;1.42;;
67776;SDS011;54576;52.020;5.536;2024-03-23T11:27:37;11.43;;;1.50;;
67776;SDS011;54576;52.020;5.536;2024-03-23T11:30:12;8.32;;;1.75;;
67776;SDS011;54576;52.020;5.536;2024-03-23T11:32:38;16.55;;;2.00;;
67776;SDS011;54576;52.020;5.536;2024-03-23T11:35:04;6.40;;;1.08;;
67776;SDS011;54576;52.020;5.536;2024-03-23T11:37:31;5.53;;;1.45;;
67776;SDS011;54576;52.020;5.536;2024-03-23T11:39:56;4.32;;;1.40;;
67776;SDS011;54576;52.020;5.536;2024-03-23T11:42:22;11.57;;;1.88;;
67776;SDS011;54576;52.020;5.536;2024-03-23T11:44:47;9.30;;;1.70;;
67776;SDS011;54576;52.020;5.536;2024-03-23T11:47:13;12.77;;;1.85;;
67776;SDS011;54576;52.020;5.536;2024-03-23T11:49:39;20.98;;;2.55;;
67776;SDS011;54576;52.020;5.536;2024-03-23T11:52:06;14.07;;;1.92;;
67776;SDS011;54576;52.020;5.536;2024-03-23T11:54:32;16.40;;;2.47;;
67776;SDS011;54576;52.020;5.536;2024-03-23T11:57:07;9.10;;;1.55;;
67776;SDS011;54576;52.020;5.536;2024-03-23T12:02:07;11.20;;;2.33;;
67776;SDS011;54576;52.020;5.536;2024-03-23T12:04:37;10.13;;;1.75;;
67776;SDS011;54576;52.020;5.536;2024-03-23T12:09:44;6.70;;;1.55;;
67776;SDS011;54576;52.020;5.536;2024-03-23T12:12:15;11.38;;;2.00;;
67776;SDS011;54576;52.020;5.536;2024-03-23T12:14:44;8.88;;;1.60;;
67776;SDS011;54576;52.020;5.536;2024-03-23T12:17:25;14.70;;;1.40;;
67776;SDS011;54576;52.020;5.536;2024-03-23T12:19:51;14.70;;;1.85;;
67776;SDS011;54576;52.020;5.536;2024-03-23T12:22:20;10.88;;;2.28;;
67776;SDS011;54576;52.020;5.536;2024-03-23T12:24:49;14.23;;;1.75;;
67776;SDS011;54576;52.020;5.536;2024-03-23T12:27:15;13.25;;;2.00;;
67776;SDS011;54576;52.020;5.536;2024-03-23T12:29:41;6.63;;;1.38;;
67776;SDS011;54576;52.020;5.536;2024-03-23T12:32:10;11.18;;;1.80;;
67776;SDS011;54576;52.020;5.536;2024-03-23T12:34:36;12.15;;;2.08;;
67776;SDS011;54576;52.020;5.536;2024-03-23T12:37:02;17.67;;;2.10;;
67776;SDS011;54576;52.020;5.536;2024-03-23T12:39:28;6.78;;;1.65;;
67776;SDS011;54576;52.020;5.536;2024-03-23T12:41:53;10.90;;;1.98;;
67776;SDS011;54576;52.020;5.536;2024-03-23T12:44:19;5.78;;;1.65;;
67776;SDS011;54576;52.020;5.536;2024-03-23T12:46:44;9.45;;;2.08;;
67776;SDS011;54576;52.020;5.536;2024-03-23T12:49:10;9.60;;;1.92;;
67776;SDS011;54576;52.020;5.536;2024-03-23T12:51:36;9.88;;;1.88;;
67776;SDS011;54576;52.020;5.536;2024-03-23T12:54:02;10.27;;;1.75;;
67776;SDS011;54576;52.020;5.536;2024-03-23T12:56:28;12.65;;;1.80;;
67776;SDS011;54576;52.020;5.536;2024-03-23T12:58:54;12.60;;;2.28;;
67776;SDS011;54576;52.020;5.536;2024-03-23T13:01:22;8.57;;;1.55;;
67776;SDS011;54576;52.020;5.536;2024-03-23T13:03:50;9.23;;;2.27;;
67776;SDS011;54576;52.020;5.536;2024-03-23T13:06:16;11.05;;;2.28;;
67776;SDS011;54576;52.020;5.536;2024-03-23T13:08:46;4.93;;;1.33;;
67776;SDS011;54576;52.020;5.536;2024-03-23T13:11:12;9.38;;;1.90;;
67776;SDS011;54576;52.020;5.536;2024-03-23T13:13:39;15.40;;;2.63;;
67776;SDS011;54576;52.020;5.536;2024-03-23T13:16:05;10.32;;;1.83;;
67776;SDS011;54576;52.020;5.536;2024-03-23T13:18:31;11.63;;;1.92;;
67776;SDS011;54576;52.020;5.536;2024-03-23T13:20:57;15.38;;;1.98;;
67776;SDS011;54576;52.020;5.536;2024-03-23T13:23:23;8.68;;;2.00;;
67776;SDS011;54576;52.020;5.536;2024-03-23T13:25:52;13.82;;;1.73;;
67776;SDS011;54576;52.020;5.536;2024-03-23T13:28:19;10.88;;;1.70;;
67776;SDS011;54576;52.020;5.536;2024-03-23T13:30:51;7.82;;;1.50;;
67776;SDS011;54576;52.020;5.536;2024-03-23T13:33:21;11.57;;;2.08;;
67776;SDS011;54576;52.020;5.536;2024-03-23T13:35:50;16.92;;;2.55;;
67776;SDS011;54576;52.020;5.536;2024-03-23T13:38:16;9.10;;;1.60;;
67776;SDS011;54576;52.020;5.536;2024-03-23T13:40:52;8.55;;;1.55;;
67776;SDS011;54576;52.020;5.536;2024-03-23T13:43:18;5.97;;;1.73;;
67776;SDS011;54576;52.020;5.536;2024-03-23T13:45:45;5.65;;;1.10;;
67776;SDS011;54576;52.020;5.536;2024-03-23T13:48:15;6.05;;;1.33;;
67776;SDS011;54576;52.020;5.536;2024-03-23T13:50:41;5.55;;;0.77;;
67776;SDS011;54576;52.020;5.536;2024-03-23T13:53:07;8.95;;;1.40;;
67776;SDS011;54576;52.020;5.536;2024-03-23T13:55:33;7.32;;;1.25;;
67776;SDS011;54576;52.020;5.536;2024-03-23T13:57:59;5.93;;;1.08;;
67776;SDS011;54576;52.020;5.536;2024-03-23T14:00:25;6.55;;;0.95;;
67776;SDS011;54576;52.020;5.536;2024-03-23T14:02:51;7.68;;;1.20;;
67776;SDS011;54576;52.020;5.536;2024-03-23T14:05:16;12.43;;;1.55;;
67776;SDS011;54576;52.020;5.536;2024-03-23T14:07:42;9.77;;;1.50;;
67776;SDS011;54576;52.020;5.536;2024-03-23T14:10:08;4.07;;;0.80;;
67776;SDS011;54576;52.020;5.536;2024-03-23T14:12:36;3.78;;;0.82;;
67776;SDS011;54576;52.020;5.536;2024-03-23T14:15:05;7.70;;;1.00;;
67776;SDS011;54576;52.020;5.536;2024-03-23T14:17:31;5.32;;;1.17;;
67776;SDS011;54576;52.020;5.536;2024-03-23T14:19:57;8.18;;;1.23;;
67776;SDS011;54576;52.020;5.536;2024-03-23T14:22:26;7.35;;;1.35;;
67776;SDS011;54576;52.020;5.536;2024-03-23T14:24:53;7.90;;;1.33;;
67776;SDS011;54576;52.020;5.536;2024-03-23T14:27:18;14.95;;;2.03;;
67776;SDS011;54576;52.020;5.536;2024-03-23T14:29:47;10.57;;;1.10;;
67776;SDS011;54576;52.020;5.536;2024-03-23T14:32:13;13.90;;;1.73;;
67776;SDS011;54576;52.020;5.536;2024-03-23T14:34:38;8.77;;;1.77;;
67776;SDS011;54576;52.020;5.536;2024-03-23T14:37:04;8.45;;;1.65;;
67776;SDS011;54576;52.020;5.536;2024-03-23T14:39:31;15.30;;;1.80;;
67776;SDS011;54576;52.020;5.536;2024-03-23T14:41:59;5.47;;;1.23;;
67776;SDS011;54576;52.020;5.536;2024-03-23T14:44:25;8.52;;;1.30;;
67776;SDS011;54576;52.020;5.536;2024-03-23T14:46:51;9.02;;;1.20;;
67776;SDS011;54576;52.020;5.536;2024-03-23T14:49:16;8.93;;;1.30;;
67776;SDS011;54576;52.020;5.536;2024-03-23T14:51:42;9.52;;;1.35;;
67776;SDS011;54576;52.020;5.536;2024-03-23T14:54:08;7.28;;;1.10;;
67776;SDS011;54576;52.020;5.536;2024-03-23T14:56:33;10.45;;;1.65;;
67776;SDS011;54576;52.020;5.536;2024-03-23T14:58:59;5.75;;;1.33;;
67776;SDS011;54576;52.020;5.536;2024-03-23T15:01:25;9.55;;;2.13;;
67776;SDS011;54576;52.020;5.536;2024-03-23T15:03:50;10.60;;;1.85;;
67776;SDS011;54576;52.020;5.536;2024-03-23T15:06:18;7.45;;;1.70;;
67776;SDS011;54576;52.020;5.536;2024-03-23T15:08:44;13.40;;;1.45;;
67776;SDS011;54576;52.020;5.536;2024-03-23T15:11:10;6.88;;;1.67;;
67776;SDS011;54576;52.020;5.536;2024-03-23T15:13:36;7.50;;;1.33;;
67776;SDS011;54576;52.020;5.536;2024-03-23T15:16:03;5.85;;;1.30;;
67776;SDS011;54576;52.020;5.536;2024-03-23T15:18:30;5.72;;;1.15;;
67776;SDS011;54576;52.020;5.536;2024-03-23T15:21:01;7.43;;;1.30;;
67776;SDS011;54576;52.020;5.536;2024-03-23T15:23:28;7.25;;;0.93;;
67776;SDS011;54576;52.020;5.536;2024-03-23T15:25:58;3.78;;;1.10;;
67776;SDS011;54576;52.020;5.536;2024-03-23T15:28:25;4.72;;;1.55;;
67776;SDS011;54576;52.020;5.536;2024-03-23T15:31:27;4.30;;;1.05;;
67776;SDS011;54576;52.020;5.536;2024-03-23T15:33:52;4.60;;;1.10;;
67776;SDS011;54576;52.020;5.536;2024-03-23T15:36:18;2.67;;;1.00;;
67776;SDS011;54576;52.020;5.536;2024-03-23T15:38:44;4.65;;;1.17;;
67776;SDS011;54576;52.020;5.536;2024-03-23T15:41:10;6.35;;;1.60;;
67776;SDS011;54576;52.020;5.536;2024-03-23T15:43:35;5.70;;;1.25;;
67776;SDS011;54576;52.020;5.536;2024-03-23T15:46:04;7.55;;;1.10;;